Aviation Digital Data Service (ADDS)

Output produced by METARs form (1008 UTC 21 August 2014)
found at http://aviationweather.gov/adds/metars/
 
KBDL 210809Z 2108/2212 VRB03KT P6SM FEW100 BKN250 
     FM211500 17005KT P6SM SCT050 BKN100 
     FM220400 VRB03KT P6SM OVC025